Time;durP1;ratioP1;P1;durP2;ratioP2;P2;SDS_P1;SDS_P2;PMS_P1;PMS_P2;Temp;Humidity;BMP_temperature;BMP_pressure;BME280_temperature;BME280_humidity;BME280_pressure;Samples;Min_cycle;Max_cycle;Signal;HPM_P1;HPM_P2
2023/11/16 00:01:51;;;;;;;5.82;0.40;;;9.10;99.90;;;;;;4980811;28;20037;-87
2023/11/16 00:04:17;;;;;;;6.32;0.55;;;9.10;99.90;;;;;;4995934;28;20027;-87
2023/11/16 00:06:43;;;;;;;9.77;0.50;;;9.10;99.90;;;;;;4997284;28;20649;-84
2023/11/16 00:09:12;;;;;;;7.57;0.82;;;9.10;99.90;;;;;;4982438;28;20035;-88
2023/11/16 00:11:38;;;;;;;8.10;0.50;;;9.10;99.90;;;;;;4983703;28;20038;-82
2023/11/16 00:14:05;;;;;;;5.60;0.40;;;9.10;99.90;;;;;;4980975;28;20039;-91
2023/11/16 00:16:31;;;;;;;8.98;0.77;;;9.10;99.90;;;;;;4980751;28;20506;-87
2023/11/16 00:18:57;;;;;;;7.03;0.70;;;9.10;99.90;;;;;;4992238;28;20039;-85
2023/11/16 00:21:23;;;;;;;3.65;0.40;;;9.10;99.90;;;;;;4974611;28;20376;-88
2023/11/16 00:23:49;;;;;;;7.40;0.70;;;9.10;99.90;;;;;;4965040;28;20364;-84
2023/11/16 00:26:16;;;;;;;5.78;0.50;;;9.00;99.90;;;;;;4993121;28;20038;-86
2023/11/16 00:28:50;;;;;;;6.18;0.45;;;9.00;99.90;;;;;;4967010;28;20031;-86
2023/11/16 00:31:16;;;;;;;8.18;1.33;;;9.00;99.90;;;;;;4993042;28;20031;-87
2023/11/16 00:33:45;;;;;;;8.32;1.13;;;9.00;99.90;;;;;;4996239;28;20039;-88
2023/11/16 00:36:12;;;;;;;6.63;0.70;;;9.00;99.90;;;;;;4983021;28;20019;-84
2023/11/16 00:38:38;;;;;;;6.65;0.57;;;9.00;99.90;;;;;;4978366;28;20035;-86
2023/11/16 00:41:08;;;;;;;7.05;1.02;;;9.00;99.90;;;;;;4995980;28;20042;-85
2023/11/16 00:43:34;;;;;;;8.27;0.70;;;9.00;99.90;;;;;;4995636;28;20034;-85
2023/11/16 00:46:01;;;;;;;5.35;0.82;;;8.90;99.90;;;;;;4981014;28;20109;-83
2023/11/16 00:48:29;;;;;;;7.45;1.15;;;8.90;99.90;;;;;;4964806;28;20399;-83
2023/11/16 00:50:54;;;;;;;11.40;1.45;;;8.90;99.90;;;;;;4980802;28;20154;-84
2023/11/16 00:53:20;;;;;;;9.65;0.80;;;8.90;99.90;;;;;;4967463;28;20121;-83
2023/11/16 00:55:49;;;;;;;6.78;0.75;;;8.90;99.90;;;;;;4994835;28;20033;-83
2023/11/16 00:58:15;;;;;;;10.13;1.00;;;8.90;99.90;;;;;;4964845;28;20501;-89
2023/11/16 01:00:40;;;;;;;3.88;0.60;;;8.90;99.90;;;;;;4985012;28;20035;-88
2023/11/16 01:03:07;;;;;;;9.45;1.05;;;8.90;99.90;;;;;;4984279;28;20093;-90
2023/11/16 01:05:33;;;;;;;7.70;1.10;;;8.90;99.90;;;;;;4966287;28;20048;-85
2023/11/16 01:07:58;;;;;;;8.77;1.10;;;8.90;99.90;;;;;;4992047;28;20023;-86
2023/11/16 01:10:29;;;;;;;7.93;1.05;;;8.90;99.90;;;;;;4982436;28;20387;-84
2023/11/16 01:12:56;;;;;;;11.05;1.08;;;8.90;99.90;;;;;;4968084;28;20522;-85
2023/11/16 01:15:23;;;;;;;6.93;0.60;;;9.00;99.90;;;;;;4985093;28;20026;-85
2023/11/16 01:17:49;;;;;;;5.75;1.08;;;8.90;99.90;;;;;;4983441;28;20031;-82
2023/11/16 01:20:23;;;;;;;6.32;0.70;;;8.90;99.90;;;;;;4967903;28;20467;-82
2023/11/16 01:23:01;;;;;;;9.75;1.00;;;9.00;99.90;;;;;;4990171;28;20034;-84
2023/11/16 01:25:27;;;;;;;9.05;1.05;;;9.00;99.90;;;;;;4998057;28;20037;-88
2023/11/16 01:27:57;;;;;;;11.98;0.80;;;8.90;99.90;;;;;;4985686;28;20038;-82
2023/11/16 01:30:24;;;;;;;11.07;1.35;;;8.90;99.90;;;;;;4999926;28;20081;-82
2023/11/16 01:32:50;;;;;;;8.18;1.13;;;8.80;99.90;;;;;;4984240;28;20050;-82
2023/11/16 01:35:16;;;;;;;7.70;1.00;;;8.70;99.90;;;;;;4983938;28;20093;-84
2023/11/16 01:37:42;;;;;;;10.25;1.13;;;8.70;99.90;;;;;;4995060;28;20038;-82
2023/11/16 01:40:09;;;;;;;8.63;1.00;;;8.60;99.90;;;;;;4999210;28;20022;-81
2023/11/16 01:42:34;;;;;;;9.32;0.90;;;8.60;99.90;;;;;;4986576;28;20073;-81
2023/11/16 01:45:00;;;;;;;6.53;0.90;;;8.60;99.90;;;;;;4985869;28;20018;-83
2023/11/16 01:47:26;;;;;;;10.63;1.00;;;8.60;99.90;;;;;;4980853;28;20042;-82
2023/11/16 01:49:52;;;;;;;8.80;1.38;;;8.50;99.90;;;;;;4982635;28;20122;-84
2023/11/16 01:52:19;;;;;;;9.13;0.93;;;8.50;99.90;;;;;;4971550;28;20557;-83
2023/11/16 01:54:46;;;;;;;8.48;1.45;;;8.40;99.90;;;;;;4976923;28;20395;-83
2023/11/16 01:57:13;;;;;;;8.25;1.05;;;8.40;99.90;;;;;;4968708;28;20034;-86
2023/11/16 01:59:39;;;;;;;10.00;1.10;;;8.40;99.90;;;;;;4984956;28;20089;-83
2023/11/16 02:02:09;;;;;;;6.97;1.17;;;8.30;99.90;;;;;;4967350;28;20031;-83
2023/11/16 02:04:37;;;;;;;10.55;1.58;;;8.30;99.90;;;;;;4994414;28;20015;-84
2023/11/16 02:07:06;;;;;;;6.28;1.00;;;8.20;99.90;;;;;;4987130;28;20042;-82
2023/11/16 02:09:31;;;;;;;7.90;1.02;;;8.20;99.90;;;;;;4982866;28;20068;-85
2023/11/16 02:11:57;;;;;;;12.68;1.40;;;8.20;99.90;;;;;;4987654;28;20042;-86
2023/11/16 02:14:23;;;;;;;10.00;1.35;;;8.20;99.90;;;;;;4982783;28;20026;-87
2023/11/16 02:16:50;;;;;;;5.78;1.13;;;8.10;99.90;;;;;;4996833;28;20026;-83
2023/11/16 02:19:32;;;;;;;10.13;1.50;;;8.10;99.90;;;;;;4990026;28;20516;-89
2023/11/16 02:21:59;;;;;;;8.82;1.25;;;8.10;99.90;;;;;;4998556;28;20372;-83
2023/11/16 02:24:25;;;;;;;9.23;0.90;;;8.10;99.90;;;;;;4990312;28;20266;-79
2023/11/16 02:26:51;;;;;;;6.80;1.02;;;8.10;99.90;;;;;;4981822;28;20023;-83
2023/11/16 02:29:17;;;;;;;9.85;1.40;;;8.10;99.90;;;;;;4979026;28;20034;-83
2023/11/16 02:31:43;;;;;;;8.13;1.30;;;8.10;99.90;;;;;;4988165;28;20380;-85
2023/11/16 02:34:08;;;;;;;6.97;1.40;;;8.10;99.90;;;;;;4992473;28;20121;-86
2023/11/16 02:36:34;;;;;;;5.78;1.05;;;8.10;99.90;;;;;;4994099;28;20061;-80
2023/11/16 02:39:01;;;;;;;5.32;0.85;;;8.10;99.90;;;;;;4982212;28;20139;-83
2023/11/16 02:41:29;;;;;;;4.70;0.90;;;8.00;99.90;;;;;;4992550;28;20390;-83
2023/11/16 02:43:55;;;;;;;8.30;1.65;;;8.10;99.90;;;;;;4966609;28;20065;-83
2023/11/16 02:46:21;;;;;;;6.38;1.52;;;8.00;99.90;;;;;;4984077;28;20109;-80
2023/11/16 02:48:46;;;;;;;5.18;1.10;;;8.00;99.90;;;;;;4985972;28;20120;-82
2023/11/16 02:51:14;;;;;;;7.00;1.70;;;8.00;99.90;;;;;;4982312;28;20057;-81
2023/11/16 02:53:41;;;;;;;6.18;0.95;;;8.00;99.90;;;;;;4970637;28;20073;-83
2023/11/16 02:56:08;;;;;;;6.13;0.90;;;8.00;99.90;;;;;;4970721;28;20046;-81
2023/11/16 02:58:34;;;;;;;5.53;1.00;;;7.90;99.90;;;;;;4991742;28;20480;-81
2023/11/16 03:01:02;;;;;;;8.73;1.20;;;7.90;99.90;;;;;;4982656;28;20023;-84
2023/11/16 03:03:28;;;;;;;8.07;1.70;;;7.90;99.90;;;;;;4961702;28;20033;-88
2023/11/16 03:05:53;;;;;;;7.60;1.20;;;7.90;99.90;;;;;;4985633;28;20117;-85
2023/11/16 03:08:19;;;;;;;6.05;0.93;;;7.80;99.90;;;;;;4966427;28;20026;-88
2023/11/16 03:10:47;;;;;;;4.70;1.10;;;7.80;99.90;;;;;;4985168;28;20665;-84
2023/11/16 03:13:16;;;;;;;6.32;1.23;;;7.80;99.90;;;;;;4993512;28;20081;-79
2023/11/16 03:15:42;;;;;;;4.65;1.23;;;7.80;99.90;;;;;;4993825;28;20108;-84
2023/11/16 03:18:08;;;;;;;6.05;1.02;;;7.70;99.90;;;;;;4986918;28;20391;-81
2023/11/16 03:20:34;;;;;;;6.05;1.00;;;7.70;99.90;;;;;;4986118;28;20049;-84
2023/11/16 03:23:01;;;;;;;3.45;0.70;;;7.70;99.90;;;;;;4981021;28;20052;-81
2023/11/16 03:25:26;;;;;;;3.17;0.70;;;7.60;99.90;;;;;;4991789;28;20038;-87
2023/11/16 03:27:52;;;;;;;4.57;0.70;;;7.60;99.90;;;;;;4966152;28;20041;-89
2023/11/16 03:30:18;;;;;;;3.72;0.55;;;7.60;99.90;;;;;;4982803;28;20038;-82
2023/11/16 03:32:45;;;;;;;3.33;0.50;;;7.70;99.90;;;;;;4996066;28;20057;-81
2023/11/16 03:35:13;;;;;;;1.95;0.50;;;7.70;99.90;;;;;;4994651;28;20074;-82
2023/11/16 03:37:42;;;;;;;3.55;0.55;;;7.70;99.90;;;;;;4977107;28;20034;-86
2023/11/16 03:40:12;;;;;;;2.67;0.60;;;7.70;99.90;;;;;;4964556;28;20501;-81
2023/11/16 03:42:38;;;;;;;1.85;0.40;;;7.80;99.90;;;;;;4986392;28;20038;-87
2023/11/16 03:45:05;;;;;;;1.23;0.40;;;7.70;99.90;;;;;;4984156;28;20042;-86
2023/11/16 03:47:34;;;;;;;3.67;0.60;;;7.70;99.90;;;;;;4994467;28;20031;-83
2023/11/16 03:50:03;;;;;;;6.05;1.42;;;7.70;99.90;;;;;;4983665;28;20027;-83
2023/11/16 03:52:31;;;;;;;5.47;0.70;;;7.70;99.90;;;;;;4993199;28;20054;-85
2023/11/16 03:54:57;;;;;;;2.40;1.15;;;7.60;99.90;;;;;;4986046;28;20414;-90
2023/11/16 03:57:23;;;;;;;7.72;1.92;;;7.50;99.90;;;;;;4991337;28;20360;-82
2023/11/16 03:59:49;;;;;;;4.70;0.90;;;7.60;99.90;;;;;;4981804;28;20099;-82
2023/11/16 04:02:15;;;;;;;5.85;0.85;;;7.60;99.90;;;;;;4992818;28;20501;-81
2023/11/16 04:04:42;;;;;;;3.03;0.50;;;7.60;99.90;;;;;;4991572;28;20055;-81
2023/11/16 04:07:08;;;;;;;3.70;0.50;;;7.50;99.90;;;;;;4978794;28;20030;-82
2023/11/16 04:09:36;;;;;;;5.10;1.10;;;7.50;99.90;;;;;;4979359;28;20050;-82
2023/11/16 04:12:02;;;;;;;3.28;0.50;;;7.50;99.90;;;;;;4982936;28;20034;-81
2023/11/16 04:14:28;;;;;;;1.13;0.40;;;7.40;99.90;;;;;;4994816;28;20502;-86
2023/11/16 04:16:53;;;;;;;1.92;0.40;;;7.40;99.90;;;;;;4978247;28;20027;-81
2023/11/16 04:19:20;;;;;;;1.50;0.30;;;7.40;99.90;;;;;;4995818;28;20039;-86
2023/11/16 04:21:46;;;;;;;2.85;0.50;;;7.30;99.90;;;;;;4974478;28;20031;-81
2023/11/16 04:24:14;;;;;;;1.60;0.50;;;7.30;99.90;;;;;;4980598;28;20417;-81
2023/11/16 04:26:40;;;;;;;6.45;0.75;;;7.30;99.90;;;;;;4965652;28;20113;-85
2023/11/16 04:29:11;;;;;;;2.55;0.40;;;7.30;99.90;;;;;;4992905;28;20109;-81
2023/11/16 04:31:37;;;;;;;2.75;0.43;;;7.20;99.90;;;;;;4981593;28;20066;-86
2023/11/16 04:34:02;;;;;;;1.70;0.57;;;7.10;99.90;;;;;;4977014;28;20073;-85
2023/11/16 04:36:28;;;;;;;2.60;0.40;;;7.10;99.90;;;;;;4979417;28;20030;-81
2023/11/16 04:38:55;;;;;;;1.10;0.40;;;7.10;99.90;;;;;;4971421;28;20066;-84
2023/11/16 04:41:25;;;;;;;1.58;0.40;;;7.00;99.90;;;;;;4983980;28;20055;-85
2023/11/16 04:43:54;;;;;;;1.70;0.40;;;7.00;99.90;;;;;;4978682;28;20045;-91
2023/11/16 04:46:20;;;;;;;1.40;0.47;;;6.90;99.90;;;;;;4974881;28;20031;-84
2023/11/16 04:48:46;;;;;;;4.85;0.40;;;6.90;99.90;;;;;;4970543;28;20390;-83
2023/11/16 04:51:20;;;;;;;3.42;0.60;;;6.90;99.90;;;;;;4993575;28;20395;-88
2023/11/16 04:53:50;;;;;;;1.58;0.30;;;6.90;99.90;;;;;;4991336;28;20043;-83
2023/11/16 04:56:16;;;;;;;3.95;0.45;;;6.80;99.90;;;;;;4993932;28;20483;-89
2023/11/16 04:58:43;;;;;;;2.22;0.50;;;6.80;99.90;;;;;;4983463;28;20034;-83
2023/11/16 05:01:09;;;;;;;2.67;0.32;;;6.80;99.90;;;;;;4979855;28;20022;-87
2023/11/16 05:03:35;;;;;;;2.03;0.40;;;6.80;99.90;;;;;;4995750;28;20117;-88
2023/11/16 05:06:01;;;;;;;1.25;0.30;;;6.80;99.90;;;;;;4996355;28;20546;-81
2023/11/16 05:08:27;;;;;;;1.40;0.30;;;6.80;99.90;;;;;;4972756;28;20050;-86
2023/11/16 05:10:52;;;;;;;4.38;0.45;;;6.80;99.90;;;;;;4989922;28;20471;-87
2023/11/16 05:13:21;;;;;;;3.22;0.40;;;6.90;99.90;;;;;;4989583;28;20516;-91
2023/11/16 05:15:48;;;;;;;1.25;0.40;;;6.70;99.90;;;;;;4997006;28;20031;-83
2023/11/16 05:18:14;;;;;;;1.70;0.30;;;6.70;99.90;;;;;;4996133;28;20511;-85
2023/11/16 05:20:40;;;;;;;1.60;0.35;;;6.60;99.90;;;;;;4972862;28;20094;-86
2023/11/16 05:23:07;;;;;;;2.45;0.40;;;6.70;99.90;;;;;;4987847;28;20026;-88
2023/11/16 05:25:34;;;;;;;1.13;0.40;;;6.60;99.90;;;;;;4992655;28;20034;-91
2023/11/16 05:28:03;;;;;;;2.33;0.40;;;6.70;99.90;;;;;;5000839;28;20038;-85
2023/11/16 05:30:30;;;;;;;2.20;0.40;;;6.60;99.90;;;;;;4967449;28;20030;-85
2023/11/16 05:32:56;;;;;;;2.00;0.50;;;6.70;99.90;;;;;;4972176;28;20305;-82
2023/11/16 05:35:22;;;;;;;2.17;0.40;;;6.70;99.90;;;;;;4980819;28;20093;-83
2023/11/16 05:37:48;;;;;;;3.05;1.05;;;6.60;99.90;;;;;;4996482;28;20108;-82
2023/11/16 05:40:14;;;;;;;1.90;0.43;;;6.60;99.90;;;;;;4983043;28;20035;-85
2023/11/16 05:42:40;;;;;;;1.30;0.40;;;6.50;99.90;;;;;;4985118;28;20042;-83
2023/11/16 05:45:06;;;;;;;2.08;0.55;;;6.50;99.90;;;;;;4980170;28;20068;-84
2023/11/16 05:47:32;;;;;;;3.78;0.60;;;6.50;99.90;;;;;;4965750;28;20126;-86
2023/11/16 05:49:58;;;;;;;2.70;0.50;;;6.40;99.90;;;;;;4968016;28;20026;-86
2023/11/16 05:52:24;;;;;;;2.33;0.43;;;6.40;99.90;;;;;;4978806;28;20038;-87
2023/11/16 05:54:50;;;;;;;1.92;0.40;;;6.20;99.90;;;;;;4981835;28;20031;-86
2023/11/16 05:57:16;;;;;;;3.80;0.47;;;6.30;99.90;;;;;;4983892;28;20133;-84
2023/11/16 05:59:42;;;;;;;1.85;0.50;;;6.20;99.90;;;;;;4997244;28;20027;-88
2023/11/16 06:02:09;;;;;;;1.63;0.45;;;6.20;99.90;;;;;;4969960;28;20022;-90
2023/11/16 06:04:35;;;;;;;3.08;0.60;;;6.10;99.90;;;;;;4981468;28;20141;-88
2023/11/16 06:07:02;;;;;;;3.40;0.50;;;6.10;99.90;;;;;;4966529;28;20046;-92
2023/11/16 06:09:27;;;;;;;2.33;0.50;;;6.10;99.90;;;;;;4997252;28;20026;-86
2023/11/16 06:11:53;;;;;;;2.85;0.57;;;6.00;99.90;;;;;;4998123;28;20663;-82
2023/11/16 06:14:21;;;;;;;2.50;0.50;;;5.90;99.90;;;;;;4986133;28;20035;-86
2023/11/16 06:16:48;;;;;;;3.95;0.57;;;5.80;99.90;;;;;;5000395;28;20026;-88
2023/11/16 06:19:13;;;;;;;3.55;0.60;;;5.80;99.90;;;;;;4996742;28;20031;-83
2023/11/16 06:21:40;;;;;;;1.70;0.57;;;5.70;99.90;;;;;;4977654;28;20402;-87
2023/11/16 06:24:06;;;;;;;3.22;0.60;;;5.70;99.90;;;;;;4978312;28;20070;-84
2023/11/16 06:26:33;;;;;;;3.05;0.60;;;5.70;99.90;;;;;;4967255;28;20034;-86
2023/11/16 06:28:59;;;;;;;2.28;0.60;;;5.60;99.90;;;;;;4950509;28;20050;-79
2023/11/16 06:31:25;;;;;;;2.15;0.68;;;5.50;99.90;;;;;;4978474;28;20034;-86
2023/11/16 06:33:50;;;;;;;1.85;0.68;;;5.40;99.90;;;;;;4995097;28;20080;-85
2023/11/16 06:36:16;;;;;;;2.20;0.70;;;5.40;99.90;;;;;;4983412;28;20300;-88
2023/11/16 06:38:42;;;;;;;1.83;0.60;;;5.40;99.90;;;;;;4982973;28;20039;-85
2023/11/16 06:41:08;;;;;;;2.15;0.65;;;5.30;99.90;;;;;;4969187;28;20026;-87
2023/11/16 06:43:35;;;;;;;2.17;0.68;;;5.30;99.90;;;;;;4969412;28;20026;-82
2023/11/16 06:46:02;;;;;;;2.40;0.88;;;5.30;99.90;;;;;;4996302;28;20092;-84
2023/11/16 06:48:30;;;;;;;4.78;0.80;;;5.20;99.90;;;;;;4968533;28;20030;-86
2023/11/16 06:50:58;;;;;;;3.42;0.80;;;5.20;99.90;;;;;;4965009;28;20035;-84
2023/11/16 06:53:25;;;;;;;2.88;0.70;;;5.20;99.90;;;;;;4968111;28;20058;-85
2023/11/16 06:55:52;;;;;;;1.95;0.80;;;5.10;99.90;;;;;;4987737;28;20057;-89
2023/11/16 06:58:22;;;;;;;3.78;0.90;;;5.10;99.90;;;;;;4988090;28;20073;-87
2023/11/16 07:00:50;;;;;;;;;;;5.10;99.90;;;;;;4972993;28;20457;-82
2023/11/16 07:03:16;;;;;;;1.80;0.60;;;5.10;99.90;;;;;;4985613;28;19984;-81
2023/11/16 07:05:42;;;;;;;2.03;0.80;;;5.00;99.90;;;;;;4985649;28;20185;-91
2023/11/16 07:08:09;;;;;;;2.65;0.60;;;5.00;99.90;;;;;;4979147;28;20046;-85
2023/11/16 07:10:36;;;;;;;4.28;0.70;;;5.00;99.90;;;;;;4980960;28;20490;-90
2023/11/16 07:13:03;;;;;;;3.13;0.60;;;4.90;99.90;;;;;;4994412;28;20034;-88
2023/11/16 07:15:32;;;;;;;2.20;0.70;;;4.90;99.90;;;;;;4983073;28;20482;-86
2023/11/16 07:17:58;;;;;;;2.40;0.60;;;5.00;99.90;;;;;;4981825;28;20068;-84
2023/11/16 07:20:25;;;;;;;2.22;0.70;;;5.00;99.90;;;;;;4964604;28;20121;-88
2023/11/16 07:22:50;;;;;;;2.03;0.73;;;5.00;99.90;;;;;;4977881;28;20534;-86
2023/11/16 07:25:20;;;;;;;2.08;0.60;;;4.90;99.90;;;;;;4984693;28;20105;-86
2023/11/16 07:27:47;;;;;;;1.98;0.70;;;4.90;99.90;;;;;;4992738;28;20421;-90
2023/11/16 07:30:13;;;;;;;2.58;0.80;;;4.90;99.90;;;;;;4964983;28;20521;-91
2023/11/16 07:32:40;;;;;;;3.35;0.68;;;4.90;99.90;;;;;;4965330;28;20123;-84
2023/11/16 07:35:15;;;;;;;4.10;1.10;;;4.90;99.90;;;;;;4996988;28;20034;-88
2023/11/16 07:37:44;;;;;;;2.55;0.85;;;4.90;99.90;;;;;;4982637;28;20034;-82
2023/11/16 07:40:15;;;;;;;3.10;0.93;;;4.90;99.90;;;;;;4968456;28;20030;-82
2023/11/16 07:42:42;;;;;;;2.63;1.00;;;5.00;99.90;;;;;;4993337;28;20038;-90
2023/11/16 07:45:09;;;;;;;3.03;0.98;;;5.00;99.90;;;;;;4969760;28;20030;-83
2023/11/16 07:47:45;;;;;;;3.60;1.25;;;5.10;99.90;;;;;;4985061;28;20116;-93
2023/11/16 07:50:13;;;;;;;2.97;0.88;;;5.00;99.90;;;;;;4981653;28;20034;-85
2023/11/16 07:52:43;;;;;;;4.35;1.20;;;4.90;99.90;;;;;;4979221;28;20146;-82
2023/11/16 07:55:16;;;;;;;2.45;1.05;;;5.00;99.90;;;;;;4978047;28;20041;-89
2023/11/16 07:57:47;;;;;;;3.53;0.90;;;5.00;99.90;;;;;;4966775;28;20517;-83
2023/11/16 08:00:26;;;;;;;2.10;0.80;;;5.10;99.90;;;;;;4981139;28;20055;-91
2023/11/16 08:05:43;;;;;;;3.25;0.70;;;5.00;99.90;;;;;;4993194;28;20046;-86
2023/11/16 08:08:13;;;;;;;1.77;0.70;;;5.10;99.90;;;;;;4993605;28;20492;-89
2023/11/16 08:10:42;;;;;;;3.13;0.80;;;5.10;99.90;;;;;;4965208;28;20042;-88
2023/11/16 08:13:11;;;;;;;3.78;1.02;;;5.10;99.90;;;;;;4984770;28;20054;-88
2023/11/16 08:15:40;;;;;;;3.60;0.80;;;5.00;99.90;;;;;;4983928;28;20093;-92
2023/11/16 08:18:12;;;;;;;3.28;0.90;;;5.00;99.90;;;;;;4981712;28;20394;-93
2023/11/16 08:20:39;;;;;;;2.83;1.00;;;5.00;99.90;;;;;;4971682;28;20081;-89
2023/11/16 08:23:05;;;;;;;2.28;0.77;;;5.00;99.90;;;;;;4989275;28;20052;-85
2023/11/16 08:25:31;;;;;;;1.92;0.70;;;5.10;99.90;;;;;;4970196;28;20077;-89
2023/11/16 08:28:00;;;;;;;2.20;0.75;;;5.20;99.90;;;;;;4993367;28;20468;-92
2023/11/16 08:30:26;;;;;;;3.10;0.82;;;5.30;99.90;;;;;;4978911;28;20035;-88
2023/11/16 08:32:53;;;;;;;1.83;0.73;;;5.40;99.90;;;;;;4971048;28;20053;-90
2023/11/16 08:35:19;;;;;;;5.10;1.50;;;5.40;99.90;;;;;;4982332;28;20399;-91
2023/11/16 08:37:45;;;;;;;2.40;1.00;;;5.40;99.90;;;;;;4986648;28;20026;-84
2023/11/16 08:40:16;;;;;;;2.85;1.15;;;5.30;99.90;;;;;;4990704;28;20077;-86
2023/11/16 08:42:42;;;;;;;2.65;1.10;;;5.30;99.90;;;;;;4983266;28;20392;-87
2023/11/16 08:45:20;;;;;;;2.90;1.05;;;5.40;99.90;;;;;;4986322;28;20117;-90
2023/11/16 08:47:51;;;;;;;3.95;1.20;;;5.50;99.90;;;;;;4988159;28;20034;-86
2023/11/16 08:50:18;;;;;;;3.78;1.35;;;5.70;99.90;;;;;;4990655;28;20062;-88
2023/11/16 08:52:48;;;;;;;3.13;1.35;;;5.80;99.90;;;;;;4986022;28;20101;-89
2023/11/16 08:55:15;;;;;;;4.00;1.38;;;5.90;99.90;;;;;;4970375;28;20418;-90
2023/11/16 08:57:42;;;;;;;3.72;1.75;;;6.00;99.90;;;;;;4982286;28;20089;-85
2023/11/16 09:02:57;;;;;;;4.05;1.60;;;6.10;99.90;;;;;;4978501;28;20122;-91
2023/11/16 09:05:28;;;;;;;4.63;1.88;;;6.20;99.90;;;;;;4983520;28;20038;-88
2023/11/16 09:07:54;;;;;;;4.45;1.50;;;6.30;99.90;;;;;;4968870;28;20042;-82
2023/11/16 09:10:21;;;;;;;3.47;1.30;;;6.30;99.90;;;;;;4992949;28;20043;-88
2023/11/16 09:12:53;;;;;;;3.28;1.80;;;6.40;99.90;;;;;;4976328;28;20043;-87
2023/11/16 09:15:20;;;;;;;3.45;1.85;;;6.50;99.90;;;;;;4980468;28;20043;-85
2023/11/16 09:17:47;;;;;;;4.57;2.05;;;6.60;99.90;;;;;;4963969;28;20026;-87
2023/11/16 09:20:13;;;;;;;3.47;1.70;;;6.60;99.90;;;;;;4967832;28;20238;-91
2023/11/16 09:22:41;;;;;;;3.83;2.28;;;6.70;99.90;;;;;;4976563;28;20035;-88
2023/11/16 09:25:07;;;;;;;4.03;2.15;;;6.80;99.90;;;;;;4962371;28;20026;-86
2023/11/16 09:27:38;;;;;;;3.25;1.80;;;6.80;99.90;;;;;;4981781;28;20054;-91
2023/11/16 09:30:05;;;;;;;4.13;1.95;;;6.80;99.90;;;;;;4976406;28;20066;-88
2023/11/16 09:32:32;;;;;;;4.30;2.15;;;6.90;99.90;;;;;;4976765;28;20038;-86
2023/11/16 09:34:59;;;;;;;4.45;2.28;;;6.90;99.90;;;;;;4982880;28;20023;-88
2023/11/16 09:37:29;;;;;;;5.15;2.25;;;7.00;99.90;;;;;;4991969;28;20039;-85
2023/11/16 09:39:55;;;;;;;5.15;2.70;;;7.00;99.90;;;;;;4977684;28;20026;-88
2023/11/16 09:42:26;;;;;;;6.15;2.47;;;7.00;99.90;;;;;;4992147;28;20041;-87
2023/11/16 09:44:58;;;;;;;6.70;2.45;;;7.10;99.90;;;;;;4963295;28;20039;-85
2023/11/16 09:47:26;;;;;;;4.50;2.55;;;7.10;99.90;;;;;;4991106;28;20125;-87
2023/11/16 09:49:56;;;;;;;4.47;2.40;;;7.20;99.90;;;;;;4974848;28;20038;-86
2023/11/16 09:52:32;;;;;;;6.03;2.80;;;7.30;99.90;;;;;;4979799;28;20034;-87
2023/11/16 09:55:00;;;;;;;4.15;2.63;;;7.30;99.90;;;;;;4994661;28;20031;-88
2023/11/16 09:57:31;;;;;;;5.22;2.17;;;7.30;99.90;;;;;;4966266;28;20034;-85
2023/11/16 10:00:02;;;;;;;4.32;2.17;;;7.40;99.90;;;;;;4995006;28;20026;-85
2023/11/16 10:02:33;;;;;;;4.25;3.03;;;7.40;99.90;;;;;;4982519;28;20039;-88
2023/11/16 10:05:01;;;;;;;4.63;2.40;;;7.50;99.90;;;;;;4992092;28;20057;-87
2023/11/16 10:07:28;;;;;;;4.35;2.53;;;7.50;99.90;;;;;;4992269;28;20113;-87
2023/11/16 10:09:57;;;;;;;4.70;3.33;;;7.50;99.90;;;;;;4970591;28;20030;-83
2023/11/16 10:12:23;;;;;;;5.35;2.92;;;7.60;99.90;;;;;;4988483;28;20115;-88
2023/11/16 10:14:52;;;;;;;5.25;3.50;;;7.60;99.90;;;;;;4964658;28;20504;-89
2023/11/16 10:17:21;;;;;;;6.35;3.58;;;7.70;99.90;;;;;;4969162;28;20058;-89
2023/11/16 10:19:48;;;;;;;4.68;3.47;;;7.70;99.90;;;;;;4977187;28;20034;-87
2023/11/16 10:22:13;;;;;;;5.03;3.20;;;7.70;99.90;;;;;;4991287;28;20034;-85
2023/11/16 10:24:40;;;;;;;5.82;3.50;;;7.80;99.90;;;;;;4979841;28;20086;-84
2023/11/16 10:27:06;;;;;;;5.18;3.22;;;7.80;99.90;;;;;;4965930;28;20073;-87
2023/11/16 10:29:32;;;;;;;6.22;3.70;;;7.90;99.90;;;;;;4982373;28;20483;-86
2023/11/16 10:32:02;;;;;;;8.38;5.22;;;7.80;99.90;;;;;;4975350;28;20074;-85
2023/11/16 10:34:29;;;;;;;10.00;4.68;;;7.80;99.90;;;;;;4991577;28;22639;-83
2023/11/16 10:36:55;;;;;;;7.18;4.60;;;7.80;99.90;;;;;;4990638;28;20034;-88
2023/11/16 10:39:24;;;;;;;7.88;4.75;;;7.80;99.90;;;;;;4973046;28;20026;-84
2023/11/16 10:41:50;;;;;;;6.28;4.60;;;7.80;99.90;;;;;;4976505;28;20125;-89
2023/11/16 10:44:17;;;;;;;7.88;4.45;;;7.80;99.90;;;;;;4977950;28;20125;-83
2023/11/16 10:46:43;;;;;;;7.22;4.95;;;7.90;99.90;;;;;;4963311;28;20022;-83
2023/11/16 10:49:10;;;;;;;9.43;5.43;;;7.90;99.90;;;;;;4973833;28;20034;-82
2023/11/16 10:51:37;;;;;;;11.07;7.57;;;7.90;99.90;;;;;;4978740;28;20124;-88
2023/11/16 10:54:12;;;;;;;10.55;5.65;;;7.90;99.90;;;;;;4974200;28;20038;-83
2023/11/16 10:56:44;;;;;;;7.28;5.10;;;8.00;99.90;;;;;;4973791;28;20065;-85
2023/11/16 10:59:12;;;;;;;9.88;5.43;;;8.00;99.90;;;;;;4990138;28;20042;-86
2023/11/16 11:01:38;;;;;;;8.05;5.55;;;8.00;99.90;;;;;;4977325;28;20030;-80
2023/11/16 11:04:04;;;;;;;9.30;5.72;;;7.90;99.90;;;;;;4973939;28;20030;-82
2023/11/16 11:06:32;;;;;;;10.70;5.80;;;8.00;99.90;;;;;;4966180;28;20515;-87
2023/11/16 11:08:58;;;;;;;8.05;5.53;;;8.00;99.90;;;;;;4973114;28;20030;-82
2023/11/16 11:11:26;;;;;;;9.32;5.20;;;8.00;99.90;;;;;;4965302;28;20031;-85
2023/11/16 11:13:55;;;;;;;9.73;5.35;;;8.00;99.90;;;;;;4958831;28;20396;-86
2023/11/16 11:16:25;;;;;;;11.57;6.25;;;8.00;99.90;;;;;;4987248;28;20054;-83
2023/11/16 11:18:54;;;;;;;7.60;5.38;;;8.10;99.90;;;;;;4977972;28;20064;-86
2023/11/16 11:21:21;;;;;;;8.63;5.88;;;8.00;99.90;;;;;;4961973;28;20030;-82
2023/11/16 11:24:08;;;;;;;7.28;4.45;;;8.00;99.90;;;;;;4978828;28;20022;-82
2023/11/16 11:26:43;;;;;;;8.13;4.85;;;8.10;99.90;;;;;;4976932;28;20038;-85
2023/11/16 11:29:10;;;;;;;8.75;5.78;;;8.10;99.90;;;;;;4983647;28;20018;-83
2023/11/16 11:32:02;;;;;;;6.97;3.83;;;8.10;99.90;;;;;;4975966;28;20387;-83
2023/11/16 11:34:32;;;;;;;5.68;3.63;;;8.10;99.90;;;;;;4958843;28;20093;-84
2023/11/16 11:37:00;;;;;;;6.13;3.33;;;8.10;99.90;;;;;;4972725;28;20485;-83
2023/11/16 11:39:41;;;;;;;5.63;3.92;;;8.10;99.90;;;;;;4961377;28;20095;-89
2023/11/16 11:42:09;;;;;;;4.75;3.20;;;8.10;99.90;;;;;;4975648;28;20034;-85
2023/11/16 11:44:35;;;;;;;5.40;2.92;;;8.10;99.90;;;;;;4975453;28;20430;-81
2023/11/16 11:47:01;;;;;;;5.13;3.00;;;8.10;99.90;;;;;;4975911;28;20026;-85
2023/11/16 11:49:27;;;;;;;6.10;3.22;;;8.10;99.90;;;;;;4988155;28;20229;-82
2023/11/16 11:51:53;;;;;;;6.88;2.88;;;8.10;99.90;;;;;;4970486;28;20196;-83
2023/11/16 11:54:19;;;;;;;7.15;3.03;;;8.10;99.90;;;;;;4960062;28;20365;-84
2023/11/16 11:56:46;;;;;;;4.78;2.10;;;8.10;99.90;;;;;;4986819;28;20089;-81
2023/11/16 11:59:12;;;;;;;6.85;3.92;;;8.10;99.90;;;;;;4972291;28;20039;-83
2023/11/16 12:01:38;;;;;;;7.05;2.88;;;8.10;99.90;;;;;;4972478;28;20469;-83
2023/11/16 12:04:07;;;;;;;4.70;2.80;;;8.00;99.90;;;;;;4964368;28;20496;-88
2023/11/16 12:06:32;;;;;;;6.80;3.00;;;8.00;99.90;;;;;;4959305;28;20046;-86
2023/11/16 12:08:58;;;;;;;5.28;2.75;;;8.00;99.90;;;;;;4973206;28;20034;-86
2023/11/16 12:11:26;;;;;;;3.72;2.05;;;8.00;99.90;;;;;;4972566;28;20137;-85
2023/11/16 12:13:55;;;;;;;3.90;1.75;;;8.00;99.90;;;;;;4971847;28;20047;-81
2023/11/16 12:16:25;;;;;;;4.72;2.17;;;7.90;99.90;;;;;;4960029;28;20117;-87
2023/11/16 12:18:54;;;;;;;6.03;2.92;;;8.00;99.90;;;;;;4961219;28;20425;-85
2023/11/16 12:21:22;;;;;;;5.27;2.43;;;8.00;99.90;;;;;;4962501;28;20042;-86
2023/11/16 12:23:53;;;;;;;6.55;2.58;;;7.90;99.90;;;;;;4942533;28;20069;-83
2023/11/16 12:26:25;;;;;;;5.88;2.88;;;8.00;99.90;;;;;;4986195;28;20026;-87
2023/11/16 12:28:52;;;;;;;6.05;2.88;;;8.00;99.90;;;;;;4991151;28;20439;-85
2023/11/16 12:31:21;;;;;;;6.05;3.22;;;8.00;99.90;;;;;;4958583;28;20046;-83
2023/11/16 12:33:47;;;;;;;7.57;3.35;;;7.90;99.90;;;;;;4989018;28;20081;-83
2023/11/16 12:36:20;;;;;;;6.22;2.90;;;8.00;99.90;;;;;;4976456;28;20030;-85
2023/11/16 12:38:48;;;;;;;5.15;2.65;;;7.90;99.90;;;;;;4986889;28;20030;-81
2023/11/16 12:41:15;;;;;;;5.43;2.95;;;8.00;99.90;;;;;;4964423;28;20118;-83
2023/11/16 12:43:42;;;;;;;5.20;3.30;;;8.00;99.90;;;;;;4957486;28;20035;-81
2023/11/16 12:46:08;;;;;;;5.20;2.60;;;7.90;99.90;;;;;;4974533;28;20109;-83
2023/11/16 12:48:33;;;;;;;3.75;2.47;;;7.90;99.90;;;;;;4961111;28;20113;-89
2023/11/16 12:50:59;;;;;;;6.93;2.92;;;7.80;99.90;;;;;;4973232;28;20026;-86
2023/11/16 12:53:25;;;;;;;5.95;3.03;;;7.90;99.90;;;;;;4960177;28;20034;-85
2023/11/16 12:55:51;;;;;;;6.07;3.22;;;7.80;99.90;;;;;;4973352;28;20054;-82
2023/11/16 12:58:17;;;;;;;4.18;2.53;;;7.80;99.90;;;;;;4970072;28;20111;-86
2023/11/16 13:00:43;;;;;;;9.27;2.60;;;7.80;99.90;;;;;;4973685;28;20058;-82
2023/11/16 13:03:08;;;;;;;4.18;2.08;;;7.90;99.90;;;;;;4972947;28;20097;-88
2023/11/16 13:05:34;;;;;;;5.90;2.40;;;7.90;99.90;;;;;;4988654;28;20031;-86